createdAt,value
2018-04-07T00:01:43.602Z,4.70
2018-04-07T00:04:11.110Z,4.60
2018-04-07T00:06:38.566Z,4.68
2018-04-07T00:09:06.010Z,4.40
2018-04-07T00:11:33.442Z,4.37
2018-04-07T00:14:00.941Z,4.62
2018-04-07T00:16:28.380Z,4.80
2018-04-07T00:18:55.857Z,4.40
2018-04-07T00:21:23.281Z,4.00
2018-04-07T00:23:50.745Z,4.57
2018-04-07T00:26:19.158Z,3.97
2018-04-07T00:28:46.609Z,4.30
2018-04-07T00:31:14.043Z,4.40
2018-04-07T00:33:41.484Z,4.20
2018-04-07T00:36:09.044Z,4.22
2018-04-07T00:38:36.501Z,4.30
2018-04-07T00:41:03.933Z,3.90
2018-04-07T00:43:32.129Z,3.70
2018-04-07T00:45:59.561Z,3.72
2018-04-07T00:48:27.033Z,4.05
2018-04-07T00:50:54.425Z,4.20
2018-04-07T00:53:21.860Z,3.80
2018-04-07T00:55:49.337Z,3.70
2018-04-07T00:58:16.770Z,3.70
2018-04-07T01:00:44.202Z,3.12
2018-04-07T01:03:11.783Z,3.70
2018-04-07T01:05:39.209Z,3.92
2018-04-07T01:08:07.423Z,3.40
2018-04-07T01:10:34.849Z,3.40
2018-04-07T01:13:02.280Z,3.70
2018-04-07T01:15:30.521Z,3.40
2018-04-07T01:17:57.942Z,3.40
2018-04-07T01:20:25.376Z,3.07
2018-04-07T01:22:53.557Z,3.25
2018-04-07T01:25:20.995Z,2.95
2018-04-07T01:27:49.246Z,2.90
2018-04-07T01:30:16.707Z,3.03
2018-04-07T01:32:44.134Z,2.90
2018-04-07T01:35:11.567Z,3.00
2018-04-07T01:37:39.050Z,2.80
2018-04-07T01:40:06.490Z,2.40
2018-04-07T01:42:33.917Z,2.72
2018-04-07T01:45:02.116Z,2.40
2018-04-07T01:47:29.555Z,2.70
2018-04-07T01:49:57.747Z,2.80
2018-04-07T01:52:25.206Z,2.90
2018-04-07T01:54:52.622Z,2.80
2018-04-07T01:57:20.835Z,2.70
2018-04-07T01:59:48.261Z,2.80
2018-04-07T02:02:16.453Z,2.60
2018-04-07T02:04:43.891Z,2.40
2018-04-07T02:07:12.124Z,2.40
2018-04-07T02:09:39.574Z,2.33
2018-04-07T02:12:07.033Z,2.40
2018-04-07T02:14:34.473Z,2.77
2018-04-07T02:17:01.944Z,2.70
2018-04-07T02:19:29.374Z,2.25
2018-04-07T02:21:56.850Z,2.92
2018-04-07T02:24:24.410Z,2.70
2018-04-07T02:26:51.841Z,2.90
2018-04-07T02:29:19.276Z,2.58
2018-04-07T02:31:47.513Z,2.33
2018-04-07T02:34:14.974Z,2.80
2018-04-07T02:36:42.415Z,2.40
2018-04-07T02:39:09.842Z,3.00
2018-04-07T02:41:37.273Z,2.60
2018-04-07T02:44:04.714Z,3.03
2018-04-07T02:46:33.038Z,2.60
2018-04-07T02:49:00.456Z,2.90
2018-04-07T02:51:28.678Z,2.97
2018-04-07T02:53:56.087Z,2.87
2018-04-07T02:56:24.286Z,3.20
2018-04-07T02:58:51.710Z,2.80
2018-04-07T03:01:19.922Z,3.25
2018-04-07T03:03:47.405Z,2.70
2018-04-07T03:06:14.788Z,2.93
2018-04-07T03:08:42.225Z,2.70
2018-04-07T03:11:09.657Z,3.15
2018-04-07T03:13:37.079Z,3.10
2018-04-07T03:16:04.514Z,3.45
2018-04-07T03:18:33.142Z,2.80
2018-04-07T03:21:00.569Z,3.40
2018-04-07T03:23:28.766Z,3.08
2018-04-07T03:25:56.235Z,2.90
2018-04-07T03:28:23.702Z,3.00
2018-04-07T03:30:51.159Z,3.30
2018-04-07T03:33:18.596Z,3.20
2018-04-07T03:35:46.064Z,2.80
2018-04-07T03:38:13.524Z,3.35
2018-04-07T03:40:40.978Z,3.20
2018-04-07T03:43:08.401Z,3.03
2018-04-07T03:45:35.850Z,3.55
2018-04-07T03:48:04.034Z,3.10
2018-04-07T03:50:31.467Z,3.28
2018-04-07T03:52:58.907Z,3.20
2018-04-07T03:55:26.340Z,3.28
2018-04-07T03:57:53.774Z,3.30
2018-04-07T04:00:21.201Z,3.30
2018-04-07T04:02:48.634Z,3.20
2018-04-07T04:05:16.067Z,3.53
2018-04-07T04:07:43.523Z,3.60
2018-04-07T04:10:10.968Z,3.00
2018-04-07T04:12:38.409Z,3.10
2018-04-07T04:15:05.821Z,3.15
2018-04-07T04:17:34.030Z,3.58
2018-04-07T04:20:01.510Z,3.60
2018-04-07T04:22:28.966Z,2.92
2018-04-07T04:24:56.397Z,3.40
2018-04-07T04:27:23.846Z,3.08
2018-04-07T04:29:51.281Z,3.25
2018-04-07T04:32:19.486Z,3.20
2018-04-07T04:34:46.949Z,3.35
2018-04-07T04:37:14.376Z,3.33
2018-04-07T04:39:42.568Z,3.60
2018-04-07T04:42:10.010Z,3.75
2018-04-07T04:44:37.435Z,3.30
2018-04-07T04:47:04.868Z,3.50
2018-04-07T04:49:32.318Z,3.22
2018-04-07T04:51:59.775Z,3.17
2018-04-07T04:54:27.198Z,2.80
2018-04-07T04:56:54.682Z,3.28
2018-04-07T04:59:22.111Z,3.50
2018-04-07T05:01:49.582Z,4.00
2018-04-07T05:04:16.987Z,3.00
2018-04-07T05:06:44.522Z,3.55
2018-04-07T05:09:11.969Z,3.30
2018-04-07T05:11:39.401Z,3.53
2018-04-07T05:14:06.815Z,3.80
2018-04-07T05:16:34.283Z,3.47
2018-04-07T05:19:01.695Z,3.70
2018-04-07T05:21:29.232Z,3.70
2018-04-07T05:23:56.689Z,3.45
2018-04-07T05:26:24.122Z,4.03
2018-04-07T05:28:51.545Z,3.90
2018-04-07T05:31:19.079Z,3.47
2018-04-07T05:33:46.515Z,3.80
2018-04-07T05:36:13.973Z,3.42
2018-04-07T05:38:41.393Z,3.50
2018-04-07T05:41:09.625Z,3.70
2018-04-07T05:43:37.070Z,4.97
2018-04-07T05:46:04.520Z,3.92
2018-04-07T05:48:32.080Z,3.62
2018-04-07T05:50:59.631Z,3.58
2018-04-07T05:53:27.114Z,3.78
2018-04-07T05:55:54.554Z,3.80
2018-04-07T05:58:21.999Z,3.70
2018-04-07T06:00:49.418Z,3.30
2018-04-07T06:03:17.629Z,4.20
2018-04-07T06:05:45.930Z,3.80
2018-04-07T06:08:13.606Z,3.72
2018-04-07T06:10:41.020Z,4.35
2018-04-07T06:13:08.479Z,3.90
2018-04-07T06:15:36.037Z,3.90
2018-04-07T06:18:03.525Z,4.25
2018-04-07T06:20:30.991Z,3.60
2018-04-07T06:22:58.474Z,4.20
2018-04-07T06:25:26.705Z,4.72
2018-04-07T06:27:54.173Z,4.60
2018-04-07T06:30:21.601Z,4.40
2018-04-07T06:32:49.051Z,4.00
2018-04-07T06:35:16.454Z,4.15
2018-04-07T06:37:43.885Z,4.10
2018-04-07T06:40:11.352Z,3.85
2018-04-07T06:42:38.883Z,4.20
2018-04-07T06:45:06.324Z,3.40
2018-04-07T06:47:33.791Z,3.90
2018-04-07T06:50:01.214Z,4.80
2018-04-07T06:52:29.433Z,4.30
2018-04-07T06:54:56.894Z,4.28
2018-04-07T06:57:24.330Z,4.35
2018-04-07T06:59:51.766Z,14.70
2018-04-07T07:02:19.205Z,4.22
2018-04-07T07:04:47.406Z,4.35
2018-04-07T07:07:14.842Z,3.92
2018-04-07T07:09:43.030Z,5.30
2018-04-07T07:12:10.612Z,4.35
2018-04-07T07:14:38.034Z,4.93
2018-04-07T07:17:06.255Z,4.45
2018-04-07T07:19:33.672Z,4.80
2018-04-07T07:22:01.126Z,4.82
2018-04-07T07:24:28.604Z,4.30
2018-04-07T07:26:56.026Z,4.60
2018-04-07T07:29:24.242Z,5.00
2018-04-07T07:31:51.670Z,4.80
2018-04-07T07:34:19.166Z,4.68
2018-04-07T07:36:46.654Z,4.90
2018-04-07T07:39:14.042Z,4.95
2018-04-07T07:41:41.541Z,5.70
2018-04-07T07:44:09.079Z,5.65
2018-04-07T07:46:36.540Z,5.43
2018-04-07T07:49:03.973Z,5.35
2018-04-07T07:51:32.166Z,5.37
2018-04-07T07:53:59.622Z,5.70
2018-04-07T07:56:27.109Z,5.10
2018-04-07T07:58:54.641Z,5.60
2018-04-07T08:01:22.077Z,5.15
2018-04-07T08:03:49.538Z,6.10
2018-04-07T08:06:17.742Z,5.73
2018-04-07T08:08:45.187Z,5.68
2018-04-07T08:11:12.662Z,5.70
2018-04-07T08:13:40.169Z,5.50
2018-04-07T08:16:08.410Z,5.22
2018-04-07T08:18:35.850Z,5.62
2018-04-07T08:21:03.299Z,6.30
2018-04-07T08:23:30.846Z,6.40
2018-04-07T08:25:58.281Z,5.45
2018-04-07T08:28:25.722Z,5.37
2018-04-07T08:30:53.920Z,5.55
2018-04-07T08:33:21.426Z,6.90
2018-04-07T08:35:49.680Z,6.45
2018-04-07T08:38:17.134Z,6.40
2018-04-07T08:40:45.698Z,5.78
2018-04-07T08:43:13.177Z,6.55
2018-04-07T08:45:40.650Z,5.60
2018-04-07T08:48:08.205Z,5.80
2018-04-07T08:50:35.658Z,5.68
2018-04-07T08:53:03.220Z,6.20
2018-04-07T08:55:30.747Z,5.80
2018-04-07T08:57:58.322Z,6.45
2018-04-07T09:00:25.797Z,6.40
2018-04-07T09:02:53.242Z,6.20
2018-04-07T09:05:21.217Z,6.05
2018-04-07T09:07:48.671Z,6.50
2018-04-07T09:10:16.107Z,5.97
2018-04-07T09:12:43.547Z,6.30
2018-04-07T09:15:11.017Z,6.22
2018-04-07T09:17:38.510Z,6.60
2018-04-07T09:20:06.038Z,6.50
2018-04-07T09:22:33.629Z,6.82
2018-04-07T09:25:01.088Z,6.90
2018-04-07T09:27:28.541Z,6.70
2018-04-07T09:29:56.110Z,6.57
2018-04-07T09:32:23.582Z,6.70
2018-04-07T09:34:51.806Z,6.43
2018-04-07T09:37:19.296Z,6.30
2018-04-07T09:39:46.826Z,7.50
2018-04-07T09:42:14.369Z,7.30
2018-04-07T09:44:41.786Z,6.78
2018-04-07T09:47:09.994Z,6.60
2018-04-07T09:49:37.423Z,6.90
2018-04-07T09:52:04.909Z,7.40
2018-04-07T09:54:32.357Z,6.03
2018-04-07T09:56:59.794Z,7.10
2018-04-07T09:59:28.027Z,7.60
2018-04-07T10:01:58.311Z,7.20
2018-04-07T10:04:26.527Z,6.70
2018-04-07T10:06:54.060Z,7.03
2018-04-07T10:09:21.612Z,7.40
2018-04-07T10:11:49.173Z,7.75
2018-04-07T10:14:16.627Z,7.57
2018-04-07T10:16:44.106Z,6.80
2018-04-07T10:19:11.543Z,7.30
2018-04-07T10:21:38.993Z,7.60
2018-04-07T10:24:06.494Z,7.30
2018-04-07T10:26:34.012Z,7.43
2018-04-07T10:29:01.496Z,8.40
2018-04-07T10:31:29.948Z,8.48
2018-04-07T10:33:57.378Z,7.60
2018-04-07T10:36:25.579Z,7.50
2018-04-07T10:38:53.015Z,8.00
2018-04-07T10:41:20.454Z,8.50
2018-04-07T10:43:48.649Z,7.82
2018-04-07T10:46:16.094Z,7.50
2018-04-07T10:48:44.299Z,7.82
2018-04-07T10:51:11.732Z,7.37
2018-04-07T10:53:39.174Z,7.68
2018-04-07T10:56:07.386Z,8.60
2018-04-07T10:58:34.842Z,8.50
2018-04-07T11:01:02.269Z,8.35
2018-04-07T11:03:29.741Z,8.07
2018-04-07T11:05:57.218Z,7.80
2018-04-07T11:08:24.664Z,8.00
2018-04-07T11:10:52.120Z,8.40
2018-04-07T11:13:19.542Z,8.43
2018-04-07T11:15:47.848Z,9.00
2018-04-07T11:18:15.281Z,7.82
2018-04-07T11:20:42.778Z,8.45
2018-04-07T11:23:10.251Z,9.10
2018-04-07T11:25:37.877Z,8.70
2018-04-07T11:28:05.305Z,8.90
2018-04-07T11:30:33.611Z,8.60
2018-04-07T11:33:01.043Z,8.90
2018-04-07T11:35:29.310Z,9.15
2018-04-07T11:37:58.346Z,8.93
2018-04-07T11:40:25.826Z,8.85
2018-04-07T11:42:53.250Z,9.17
2018-04-07T11:45:20.824Z,9.02
2018-04-07T11:47:48.267Z,8.60
2018-04-07T11:50:15.732Z,8.90
2018-04-07T11:52:43.158Z,8.88
2018-04-07T11:55:10.655Z,8.82
2018-04-07T11:57:38.106Z,9.00
2018-04-07T12:00:05.557Z,9.90
2018-04-07T12:02:33.057Z,9.50
2018-04-07T12:05:00.557Z,9.37
2018-04-07T12:07:27.980Z,9.25
2018-04-07T12:09:56.220Z,8.65
2018-04-07T12:12:23.662Z,8.90
2018-04-07T12:14:51.141Z,9.30
2018-04-07T12:17:18.659Z,9.70
2018-04-07T12:19:46.098Z,9.10
2018-04-07T12:22:13.678Z,9.57
2018-04-07T12:24:41.241Z,10.30
2018-04-07T12:27:08.658Z,9.90
2018-04-07T12:29:36.887Z,9.02
2018-04-07T12:32:04.330Z,10.15
2018-04-07T12:34:31.890Z,9.32
2018-04-07T12:36:59.355Z,10.07
2018-04-07T12:39:26.801Z,9.98
2018-04-07T12:41:54.233Z,9.35
2018-04-07T12:44:21.675Z,9.07
2018-04-07T12:46:49.877Z,9.13
2018-04-07T12:49:17.317Z,9.25
2018-04-07T12:51:44.760Z,9.27
2018-04-07T12:54:12.959Z,9.90
2018-04-07T12:56:40.398Z,9.10
2018-04-07T12:59:07.859Z,9.27
2018-04-07T13:01:35.294Z,9.98
2018-04-07T13:04:03.501Z,10.15
2018-04-07T13:06:31.007Z,9.32
2018-04-07T13:08:58.442Z,9.50
2018-04-07T13:11:25.908Z,9.40
2018-04-07T13:13:53.334Z,9.18
2018-04-07T13:16:20.890Z,9.40
2018-04-07T13:18:48.345Z,9.60
2018-04-07T13:21:15.905Z,9.10
2018-04-07T13:23:43.407Z,9.40
2018-04-07T13:26:10.943Z,9.00
2018-04-07T13:28:38.480Z,10.43
2018-04-07T13:31:05.934Z,9.70
2018-04-07T13:33:38.527Z,9.50
2018-04-07T13:36:00.826Z,9.95
2018-04-07T13:38:28.304Z,9.80
2018-04-07T13:40:55.738Z,9.90
2018-04-07T13:43:23.219Z,9.70
2018-04-07T13:45:50.674Z,9.60
2018-04-07T13:48:18.130Z,10.68
2018-04-07T13:50:45.564Z,10.48
2018-04-07T13:53:13.023Z,10.10
2018-04-07T13:55:40.476Z,10.43
2018-04-07T13:58:08.690Z,10.10
2018-04-07T14:00:36.136Z,11.00
2018-04-07T14:03:03.689Z,9.90
2018-04-07T14:05:31.251Z,10.63
2018-04-07T14:07:59.442Z,10.70
2018-04-07T14:10:26.899Z,10.63
2018-04-07T14:12:54.359Z,10.70
2018-04-07T14:15:21.821Z,10.30
2018-04-07T14:17:49.273Z,10.20
2018-04-07T14:20:16.707Z,10.60
2018-04-07T14:22:44.192Z,9.82
2018-04-07T14:25:11.622Z,10.00
2018-04-07T14:27:39.806Z,10.57
2018-04-07T14:30:07.249Z,10.30
2018-04-07T14:32:34.709Z,10.50
2018-04-07T14:35:02.151Z,10.90
2018-04-07T14:37:29.618Z,10.55
2018-04-07T14:39:57.063Z,10.10
2018-04-07T14:42:24.526Z,10.65
2018-04-07T14:44:51.965Z,11.33
2018-04-07T14:47:19.450Z,11.02
2018-04-07T14:49:46.926Z,10.77
2018-04-07T14:52:14.481Z,10.90
2018-04-07T14:54:42.022Z,10.75
2018-04-07T14:57:09.581Z,11.50
2018-04-07T14:59:36.993Z,11.73
2018-04-07T15:02:05.206Z,10.97
2018-04-07T15:04:32.657Z,11.77
2018-04-07T15:07:00.102Z,10.05
2018-04-07T15:09:27.578Z,11.12
2018-04-07T15:11:55.034Z,11.23
2018-04-07T15:14:22.523Z,10.90
2018-04-07T15:16:49.970Z,10.50
2018-04-07T15:19:17.431Z,10.65
2018-04-07T15:21:44.886Z,10.27
2018-04-07T15:24:12.358Z,11.48
2018-04-07T15:26:39.824Z,10.27
2018-04-07T15:29:07.271Z,10.43
2018-04-07T15:31:34.721Z,10.60
2018-04-07T15:34:02.200Z,10.88
2018-04-07T15:36:29.724Z,11.03
2018-04-07T15:38:57.150Z,11.12
2018-04-07T15:41:25.369Z,10.37
2018-04-07T15:43:52.839Z,10.35
2018-04-07T15:46:20.289Z,10.27
2018-04-07T15:48:47.738Z,10.00
2018-04-07T15:51:15.206Z,11.07
2018-04-07T15:53:42.663Z,11.48
2018-04-07T15:56:10.240Z,10.70
2018-04-07T15:58:37.773Z,10.38
2018-04-07T16:01:05.214Z,11.10
2018-04-07T16:03:32.654Z,10.87
2018-04-07T16:06:00.123Z,11.70
2018-04-07T16:08:27.547Z,11.32
2018-04-07T16:10:55.785Z,10.57
2018-04-07T16:13:23.311Z,11.20
2018-04-07T16:15:50.758Z,11.23
2018-04-07T16:18:18.259Z,10.30
2018-04-07T16:20:45.725Z,12.45
2018-04-07T16:23:13.167Z,11.20
2018-04-07T16:25:40.616Z,11.37
2018-04-07T16:28:08.088Z,10.60
2018-04-07T16:30:35.521Z,10.63
2018-04-07T16:33:02.974Z,10.00
2018-04-07T16:35:30.450Z,11.30
2018-04-07T16:37:57.918Z,10.00
2018-04-07T16:40:25.539Z,11.25
2018-04-07T16:42:52.967Z,10.70
2018-04-07T16:45:20.498Z,11.23
2018-04-07T16:47:47.893Z,11.77
2018-04-07T16:50:15.331Z,11.02
2018-04-07T16:52:43.543Z,11.30
2018-04-07T16:55:10.972Z,11.70
2018-04-07T16:57:38.427Z,12.60
2018-04-07T17:00:05.878Z,12.23
2018-04-07T17:02:34.094Z,12.30
2018-04-07T17:05:01.529Z,11.23
2018-04-07T17:07:28.995Z,12.20
2018-04-07T17:09:56.410Z,12.18
2018-04-07T17:12:24.733Z,12.20
2018-04-07T17:14:52.149Z,12.07
2018-04-07T17:17:20.369Z,11.68
2018-04-07T17:19:47.811Z,11.40
2018-04-07T17:22:15.271Z,11.95
2018-04-07T17:24:42.720Z,12.50
2018-04-07T17:27:10.167Z,14.00
2018-04-07T17:29:37.636Z,12.15
2018-04-07T17:32:05.096Z,15.05
2018-04-07T17:34:32.528Z,12.10
2018-04-07T17:36:59.965Z,13.82
2018-04-07T17:39:28.171Z,13.50
2018-04-07T17:41:55.637Z,12.50
2018-04-07T17:44:23.085Z,13.60
2018-04-07T17:46:50.530Z,13.52
2018-04-07T17:49:17.986Z,14.48
2018-04-07T17:51:45.465Z,13.00
2018-04-07T17:54:12.894Z,12.40
2018-04-07T17:56:40.343Z,13.45
2018-04-07T17:59:07.818Z,12.63
2018-04-07T18:01:35.295Z,12.48
2018-04-07T18:04:02.792Z,12.35
2018-04-07T18:06:30.227Z,12.10
2018-04-07T18:08:57.682Z,12.70
2018-04-07T18:11:25.165Z,21.20
2018-04-07T18:13:52.616Z,12.40
2018-04-07T18:16:20.054Z,12.82
2018-04-07T18:18:47.517Z,11.77
2018-04-07T18:21:14.973Z,12.45
2018-04-07T18:23:42.424Z,11.77
2018-04-07T18:26:09.878Z,12.85
2018-04-07T18:28:37.334Z,12.68
2018-04-07T18:31:04.770Z,12.40
2018-04-07T18:33:32.334Z,13.18
2018-04-07T18:35:59.783Z,14.00
2018-04-07T18:38:27.222Z,14.02
2018-04-07T18:40:55.518Z,14.52
2018-04-07T18:43:22.974Z,15.00
2018-04-07T18:45:50.478Z,14.90
2018-04-07T18:48:18.093Z,14.13
2018-04-07T18:50:45.548Z,13.40
2018-04-07T18:53:12.971Z,13.60
2018-04-07T18:55:41.221Z,13.13
2018-04-07T18:58:08.659Z,13.62
2018-04-07T19:00:36.122Z,14.52
2018-04-07T19:03:03.586Z,14.60
2018-04-07T19:05:31.025Z,13.80
2018-04-07T19:07:58.474Z,14.68
2018-04-07T19:10:26.023Z,15.55
2018-04-07T19:12:53.451Z,15.23
2018-04-07T19:15:21.673Z,15.27
2018-04-07T19:17:49.146Z,16.17
2018-04-07T19:20:16.777Z,15.30
2018-04-07T19:22:44.269Z,15.02
2018-04-07T19:25:11.710Z,16.33
2018-04-07T19:27:39.167Z,15.82
2018-04-07T19:30:06.629Z,14.90
2018-04-07T19:32:34.157Z,16.15
2018-04-07T19:35:01.631Z,16.60
2018-04-07T19:37:29.097Z,15.63
2018-04-07T19:39:56.631Z,16.83
2018-04-07T19:42:24.105Z,16.77
2018-04-07T19:44:51.578Z,16.77
2018-04-07T19:47:19.185Z,17.40
2018-04-07T19:49:46.688Z,17.75
2018-04-07T19:52:14.078Z,18.37
2018-04-07T19:54:42.391Z,18.17
2018-04-07T19:57:09.809Z,17.58
2018-04-07T19:59:38.022Z,17.10
2018-04-07T20:02:05.468Z,16.12
2018-04-07T20:04:32.925Z,16.42
2018-04-07T20:07:00.369Z,15.13
2018-04-07T20:09:27.878Z,14.30
2018-04-07T20:11:55.314Z,13.73
2018-04-07T20:14:22.780Z,14.05
2018-04-07T20:16:50.225Z,14.18
2018-04-07T20:19:17.694Z,14.82
2018-04-07T20:21:45.234Z,15.65
2018-04-07T20:24:12.662Z,14.35
2018-04-07T20:26:40.141Z,14.70
2018-04-07T20:29:07.620Z,13.20
2018-04-07T20:31:35.160Z,15.05
2018-04-07T20:34:02.663Z,14.20
2018-04-07T20:36:30.110Z,14.37
2018-04-07T20:38:57.550Z,14.35
2018-04-07T20:41:25.002Z,14.10
2018-04-07T20:43:52.510Z,14.07
2018-04-07T20:46:20.818Z,15.93
2018-04-07T20:48:48.272Z,13.93
2018-04-07T20:51:15.831Z,14.57
2018-04-07T20:53:43.252Z,14.90
2018-04-07T20:56:11.474Z,13.70
2018-04-07T20:58:38.914Z,13.65
2018-04-07T21:01:06.347Z,13.45
2018-04-07T21:03:34.651Z,13.38
2018-04-07T21:06:02.091Z,13.30
2018-04-07T21:08:30.383Z,15.43
2018-04-07T21:10:57.814Z,15.60
2018-04-07T21:13:26.025Z,15.38
2018-04-07T21:15:53.467Z,16.73
2018-04-07T21:18:20.908Z,14.40
2018-04-07T21:20:49.366Z,14.93
2018-04-07T21:23:16.812Z,13.93
2018-04-07T21:25:44.258Z,14.40
2018-04-07T21:28:11.729Z,15.50
2018-04-07T21:30:39.146Z,14.43
2018-04-07T21:33:06.605Z,14.10
2018-04-07T21:35:34.043Z,14.48
2018-04-07T21:38:01.498Z,14.27
2018-04-07T21:40:28.956Z,13.97
2018-04-07T21:42:56.379Z,13.80
2018-04-07T21:45:24.595Z,13.90
2018-04-07T21:47:52.034Z,14.27
2018-04-07T21:50:19.478Z,14.18
2018-04-07T21:52:46.942Z,14.80
2018-04-07T21:55:14.438Z,15.37
2018-04-07T21:57:41.975Z,15.98
2018-04-07T22:00:09.417Z,15.20
2018-04-07T22:02:36.906Z,15.88
2018-04-07T22:05:04.344Z,16.37
2018-04-07T22:07:31.770Z,15.25
2018-04-07T22:09:59.982Z,14.77
2018-04-07T22:12:27.423Z,14.45
2018-04-07T22:14:54.868Z,14.30
2018-04-07T22:17:22.329Z,15.00
2018-04-07T22:19:49.797Z,14.53
2018-04-07T22:22:17.255Z,14.60
2018-04-07T22:24:44.710Z,14.80
2018-04-07T22:27:12.269Z,15.63
2018-04-07T22:29:39.706Z,15.40
2018-04-07T22:32:07.147Z,16.10
2018-04-07T22:34:35.458Z,15.75
2018-04-07T22:37:02.929Z,14.93
2018-04-07T22:39:30.377Z,14.50
2018-04-07T22:41:57.831Z,15.75
2018-04-07T22:44:25.278Z,16.30
2018-04-07T22:46:52.739Z,16.80
2018-04-07T22:49:20.174Z,16.23
2018-04-07T22:51:47.628Z,15.23
2018-04-07T22:54:15.054Z,14.73
2018-04-07T22:56:42.493Z,14.02
2018-04-07T22:59:09.934Z,15.13
2018-04-07T23:01:37.390Z,15.32
2018-04-07T23:04:04.836Z,16.10
2018-04-07T23:06:32.391Z,15.15
2018-04-07T23:08:59.870Z,15.40
2018-04-07T23:11:27.602Z,15.90
2018-04-07T23:13:55.090Z,16.67
2018-04-07T23:16:22.550Z,15.50
2018-04-07T23:18:50.098Z,14.70
2018-04-07T23:21:17.558Z,14.68
2018-04-07T23:23:44.995Z,15.35
2018-04-07T23:26:12.446Z,14.90
2018-04-07T23:28:39.903Z,14.60
2018-04-07T23:31:07.402Z,15.23
2018-04-07T23:33:34.921Z,15.35
2018-04-07T23:36:02.352Z,14.95
2018-04-07T23:38:30.562Z,15.35
2018-04-07T23:40:58.030Z,15.98
2018-04-07T23:43:25.472Z,15.60
2018-04-07T23:45:52.946Z,17.15
2018-04-07T23:48:20.410Z,16.60
2018-04-07T23:50:47.862Z,17.12
2018-04-07T23:53:15.309Z,16.42
2018-04-07T23:55:42.854Z,16.83
2018-04-07T23:58:10.330Z,17.15
